ADDS METAR Data INFO
IDs: Format: Raw Decoded Include TAF

Data at: 0201 UTC 26 Apr 2017

METAR for:ELLX (Luxembourg/Findel Ar, --, BX)
Text:ELLX 260150Z AUTO 01008KT 9999 NCD 03/M03 Q1010 NOSIG
Temperature: 3.0°C ( 37°F)
Dewpoint: -3.0°C ( 27°F) [RH = 65%]
Pressure (altimeter):29.82 inches Hg (1010.0 mb)
Winds:from the N (10 degrees) at 9 MPH (8 knots; 4.1 m/s)
Visibility:6 or more sm (10+ km)
Ceiling:at least 12,000 feet AGL
Clouds:sky clear below 12,000 feet AGL

TAF for:ELLX (Luxembourg/Findel Ar, --, BX) issued at 2300 UTC 25 Apr 2017
Text:TAF ELLX 252300Z 2600/2706 01008KT CAVOK
Forecast period:0000 UTC 26 April 2017 to 0600 UTC 27 April 2017
Forecast type:FROM: standard forecast or significant change
Winds:from the N (10 degrees) at 9 MPH (8 knots; 4.1 m/s)
Visibility:6 or more sm (10+ km)
Clouds:missing
Weather:NSW (no significant weather)
Text:TEMPO 2610/2620 -SHRA SCT020TCU BKN020
Forecast period:1000 to 2000 UTC 26 April 2017
Forecast type:TEMPORARY: The following changes expected for less than half the time period
Ceiling:2000 feet AGL
Clouds: scattered clouds at 2000 feet AGL, broken clouds at 2000 feet AGL
Weather:-SHRA (light rain showers)


Page loaded:  02:01 UTC  |   07:01 PM Pacific  |   08:01 PM Mountain  |   09:01 PM Central  |   10:01 PM Eastern

 

ADVISORIES

FORECASTS

FORECASTS

OBSERVATIONS

USER TOOLS

ABOUT US